Flugplatz Seedorf

Für EDXS sind keine METAR/TAF Berichte vorhanden.
Es werden die Flugwettermeldungen vom Flugplatz Hamburg-Finkenwerder in 44 km Entfernung angezeigt.

Bericht für EDHI

vom 10.04. um 11:50 UTC

variable Windrichtung mit 3 kt

Sichtweite 10 km oder mehr

gering bewölkt in 9300 ft

aufgebrochene Bewölkung in 11000 ft

Temperatur 8.0°C

Taupunkt -3.0°C

Luftfeuchtigkeit 46%

Luftdruck 1016 hPa

EDHI 101150Z AUTO VRB03KT 9999 // FEW093/// BKN110/// 08/M03 Q1016
Keine Prognose (TAF) verfügbar.
Impressum